Pieter Caland — PBTB — position and weather

sailwx.info

Track history (hours):
 
Tides and Currents Weather Stations Pressure Air Temp Water Temp Dewpoint Dewpoint Depression Visibility Wind Speed Wind Dir Waves Ship Positions

Pieter Caland

Last reported at 2017-Jan-21 05:33 UTC. Time now 2017-Jan-21 06:26 UTC.
Position S 23°01' W 043°06'.

Length 96 m; draft 5.1 m.

Type: Other ship. MMSI: 244992000.

Date/timePositionNaut miles runAvg speedWind from/ knotsBaromVisibWave heightAir tempDewpointWater temp
2017-Jan-21 05:33S 23°01' W 043°06'4 3.8
2017-Jan-21 04:33S 23°05' W 043°05'8 8.3
2017-Jan-21 03:33S 22°57' W 043°08'3 2.9
2017-Jan-21 02:33S 22°55' W 043°10'0 0.0
2017-Jan-21 01:33S 22°55' W 043°10'0 0.3
2017-Jan-21 00:34S 22°55' W 043°09'3 2.7
2017-Jan-20 23:33S 22°53' W 043°11'0 0.0
2017-Jan-20 22:33S 22°53' W 043°11'0 0.5
2017-Jan-20 21:30S 22°53' W 043°11'0 0.0
2017-Jan-20 20:24S 22°53' W 043°11'0 0.0
2017-Jan-20 19:30S 22°53' W 043°11'0 0.5
2017-Jan-20 18:33S 22°53' W 043°11'6 5.8
2017-Jan-20 17:33S 22°58' W 043°08'9 9.0
2017-Jan-20 16:33S 23°06' W 043°04'5 4.7
2017-Jan-20 15:33S 23°02' W 043°06'8 8.0
2017-Jan-20 14:33S 22°54' W 043°09'2 2.4
2017-Jan-20 13:33S 22°53' W 043°11'0 0.0
2017-Jan-20 12:33S 22°53' W 043°11'0 0.0
2017-Jan-20 11:33S 22°53' W 043°11'1 0.6
2017-Jan-20 10:32S 22°53' W 043°11'2 2.1
2017-Jan-20 09:33S 22°54' W 043°09'9 9.2
2017-Jan-20 08:33S 23°03' W 043°05'1 1.1
2017-Jan-20 07:34S 23°04' W 043°05'8 8.3
2017-Jan-20 06:34S 22°56' W 043°08'2 1.8
2017-Jan-20 05:31S 22°55' W 043°09'0 0.0
2017-Jan-20 04:31S 22°55' W 043°09'0 0.0
2017-Jan-20 03:31S 22°55' W 043°09'0 0.0
2017-Jan-20 02:33S 22°55' W 043°09'1 1.1
2017-Jan-20 01:32S 22°55' W 043°08'6 5.9
2017-Jan-20 00:33S 23°00' W 043°07'6 5.9
2017-Jan-19 23:32S 23°06' W 043°04'8 8.0
2017-Jan-19 22:33S 22°59' W 043°07'7 6.4
2017-Jan-19 21:28S 22°53' W 043°12'0 0.0
2017-Jan-19 20:31S 22°53' W 043°12'1 0.5
2017-Jan-19 19:18S 22°53' W 043°11'0 0.0
2017-Jan-19 18:30S 22°53' W 043°11'1 0.7
2017-Jan-19 17:33S 22°53' W 043°10'0 0.0
2017-Jan-19 16:33S 22°53' W 043°10'0 0.0
2017-Jan-19 15:33S 22°53' W 043°10'0 0.0
2017-Jan-19 14:33S 22°53' W 043°10'0 0.0
2017-Jan-19 13:33S 22°53' W 043°10'0 0.0
2017-Jan-19 12:32S 22°53' W 043°10'0 0.0
2017-Jan-19 09:33S 22°53' W 043°10'1 0.5
2017-Jan-19 08:29S 22°53' W 043°11'0 0.0
2017-Jan-19 07:33S 22°53' W 043°11'1 1.4
2017-Jan-19 06:33S 22°54' W 043°10'8 8.3
2017-Jan-19 05:33S 23°01' W 043°06'4 4.4
2017-Jan-19 04:33S 23°05' W 043°04'9 8.7
2017-Jan-19 03:33S 22°57' W 043°08'3 3.0
2017-Jan-19 02:33S 22°55' W 043°10'0 0.3
2017-Jan-19 01:33S 22°55' W 043°09'0 0.2
2017-Jan-19 00:33S 22°55' W 043°09'2 1.7
2017-Jan-18 23:33S 22°53' W 043°10'0 0.0
2017-Jan-18 22:33S 22°53' W 043°11'0 0.0
2017-Jan-18 21:33S 22°53' W 043°11'1 0.6
2017-Jan-18 20:30S 22°53' W 043°11'3 3.2
2017-Jan-18 19:33S 22°55' W 043°09'9 9.3
2017-Jan-18 18:33S 23°04' W 043°05'0 0.4
2017-Jan-18 17:33S 23°04' W 043°05'8 8.4
2017-Jan-18 16:33S 22°56' W 043°09'3 2.8
2017-Jan-18 15:33S 22°53' W 043°10'0 0.0
2017-Jan-18 14:33S 22°53' W 043°10'0 0.0
2017-Jan-18 13:33S 22°53' W 043°10'0 0.0
2017-Jan-18 12:33S 22°53' W 043°10'0 0.5
2017-Jan-18 11:33S 22°53' W 043°11'0 0.0
2017-Jan-18 10:33S 22°53' W 043°11'1 0.5
2017-Jan-18 09:33S 22°53' W 043°10'8 8.0
2017-Jan-18 08:33S 23°01' W 043°07'5 5.2
2017-Jan-18 07:33S 23°05' W 043°05'8 8.5
2017-Jan-18 06:33S 22°58' W 043°08'3 3.2
2017-Jan-18 05:30S 22°55' W 043°10'0 0.0
2017-Jan-18 04:33S 22°55' W 043°10'0 0.0
2017-Jan-18 03:33S 22°55' W 043°10'2 2.0
2017-Jan-18 02:33S 22°53' W 043°11'0 0.0
2017-Jan-18 01:29S 22°53' W 043°11'0 0.0
2017-Jan-18 00:29S 22°53' W 043°11'0 0.0
2017-Jan-17 23:23S 22°53' W 043°11'0 0.0
2017-Jan-17 22:29S 22°53' W 043°11'0 0.1
2017-Jan-17 21:29S 22°53' W 043°11'0 0.0
2017-Jan-17 20:29S 22°53' W 043°11'0 0.1
2017-Jan-17 19:29S 22°53' W 043°11'0 0.0
2017-Jan-17 18:29S 22°53' W 043°11'0 0.0
2017-Jan-17 17:29S 22°53' W 043°11'0 0.0
2017-Jan-17 16:29S 22°53' W 043°11'3 3.0
2017-Jan-17 15:33S 22°55' W 043°09'8 8.1
2017-Jan-17 14:33S 23°03' W 043°06'4 3.7
2017-Jan-17 13:33S 23°06' W 043°04'8 8.3
2017-Jan-17 12:33S 22°58' W 043°08'6 5.6
2017-Jan-17 11:33S 22°53' W 043°10'0 0.0
2017-Jan-17 10:21S 22°53' W 043°10'0 0.4
2017-Jan-17 09:32S 22°53' W 043°11'0 0.2
2017-Jan-17 08:19S 22°53' W 043°11'2 2.5
2017-Jan-17 07:30S 22°54' W 043°10'0 0.1
2017-Jan-17 06:32S 22°55' W 043°10'2 2.0
2017-Jan-17 05:32S 22°53' W 043°11'0 0.0
2017-Jan-17 04:31S 22°53' W 043°11'0 0.0
2017-Jan-17 03:33S 22°53' W 043°11'5 4.7
2017-Jan-17 02:32S 22°57' W 043°08'10 8.1
2017-Jan-17 01:17S 23°07' W 043°04'2 2.9
2017-Jan-17 00:33S 23°05' W 043°05'8 8.4
2017-Jan-16 23:33S 22°57' W 043°08'4 4.0
2017-Jan-16 22:33S 22°53' W 043°10'0 0.0
2017-Jan-16 21:33S 22°53' W 043°11'0 0.0
2017-Jan-16 20:33S 22°53' W 043°11'0 0.0
2017-Jan-16 19:33S 22°53' W 043°11'1 0.6
2017-Jan-16 18:31S 22°53' W 043°11'0 0.0
2017-Jan-16 17:31S 22°53' W 043°11'0 0.0
2017-Jan-16 16:33S 22°53' W 043°11'7 7.1
2017-Jan-16 15:33S 22°59' W 043°07'8 7.9
2017-Jan-16 14:31S 23°07' W 043°04'6 6.4
2017-Jan-16 13:33S 23°01' W 043°07'8 8.3
2017-Jan-16 12:33S 22°53' W 043°10'1 0.6
2017-Jan-16 11:33S 22°53' W 043°10'0 0.1
2017-Jan-16 10:33S 22°53' W 043°10'0 0.1
2017-Jan-16 09:33S 22°53' W 043°10'0 0.0
2017-Jan-16 08:33S 22°53' W 043°10'0 0.0
2017-Jan-16 07:33S 22°53' W 043°10'5 5.5
2017-Jan-16 06:33S 22°58' W 043°08'9 8.8
2017-Jan-16 05:33S 23°06' W 043°04'6 6.2
2017-Jan-16 04:33S 23°01' W 043°06'8 8.0
2017-Jan-16 03:33S 22°53' W 043°10'0 0.5
2017-Jan-16 02:33S 22°53' W 043°11'0 0.0
2017-Jan-16 01:33S 22°53' W 043°11'0 0.0
2017-Jan-16 00:33S 22°53' W 043°10'0 0.5
2017-Jan-15 23:33S 22°53' W 043°11'1 0.5
2017-Jan-15 22:33S 22°53' W 043°10'1 0.5
2017-Jan-15 21:33S 22°53' W 043°11'0 0.1
2017-Jan-15 20:31S 22°53' W 043°11'0 0.1
2017-Jan-15 19:31S 22°53' W 043°11'0 0.0
2017-Jan-15 18:31S 22°53' W 043°11'0 0.0
2017-Jan-15 17:31S 22°53' W 043°11'0 0.0
2017-Jan-15 16:31S 22°53' W 043°11'0 0.0
2017-Jan-15 15:31S 22°53' W 043°11'0 0.0
2017-Jan-15 14:31S 22°53' W 043°11'0 0.0
2017-Jan-15 13:31S 22°53' W 043°11'0 0.0
2017-Jan-15 12:25S 22°53' W 043°11'0 0.0
2017-Jan-15 11:31S 22°53' W 043°11'0 0.1
2017-Jan-15 10:31S 22°53' W 043°11'0 0.0
2017-Jan-15 09:31S 22°53' W 043°11'0 0.0
2017-Jan-15 08:25S 22°53' W 043°11'0 0.1
2017-Jan-15 07:31S 22°53' W 043°11'0 0.0
2017-Jan-15 06:25S 22°53' W 043°11'0 0.1
2017-Jan-15 05:31S 22°53' W 043°11'0 0.0
2017-Jan-15 04:31S 22°53' W 043°11'0 0.1
2017-Jan-15 03:31S 22°53' W 043°11'0 0.0
2017-Jan-15 02:31S 22°53' W 043°11'0 0.0
2017-Jan-15 01:31S 22°53' W 043°11'0 0.0
2017-Jan-15 00:31S 22°53' W 043°11'0 0.1
2017-Jan-14 23:31S 22°53' W 043°11'0 0.0
2017-Jan-14 22:31S 22°53' W 043°11'0 0.0
2017-Jan-14 21:31S 22°53' W 043°11'0 0.0
2017-Jan-14 20:31S 22°53' W 043°11'0 0.0
2017-Jan-14 19:31S 22°53' W 043°11'0 0.0
2017-Jan-14 18:31S 22°53' W 043°11'0 0.0
2017-Jan-14 17:31S 22°53' W 043°11'0 0.0
2017-Jan-14 16:19S 22°53' W 043°11'0 0.0
2017-Jan-14 15:31S 22°53' W 043°11'0 0.0
2017-Jan-14 14:31S 22°53' W 043°11'0 0.1
2017-Jan-14 13:31S 22°53' W 043°11'0 0.0
2017-Jan-14 12:31S 22°53' W 043°11'0 0.0
2017-Jan-14 11:31S 22°53' W 043°11'0 0.0
2017-Jan-14 06:25S 22°53' W 043°11'0 0.1
2017-Jan-14 05:25S 22°53' W 043°11'0 0.0
2017-Jan-14 04:31S 22°53' W 043°11'0 0.0
2017-Jan-13 23:13S 22°53' W 043°11'0 0.0
2017-Jan-13 22:25S 22°53' W 043°11'0 0.0
2017-Jan-13 21:31S 22°53' W 043°11'0 0.0
2017-Jan-13 20:31S 22°53' W 043°11'0 0.0
2017-Jan-13 19:31S 22°53' W 043°11'0 0.0
2017-Jan-13 18:31S 22°53' W 043°11'0 0.1
2017-Jan-13 17:31S 22°53' W 043°11'0 0.0
2017-Jan-13 16:19S 22°53' W 043°11'0 0.0
2017-Jan-13 15:31S 22°53' W 043°11'0 0.0
2017-Jan-13 14:25S 22°53' W 043°11'0 0.1
2017-Jan-13 13:31S 22°53' W 043°11'0 0.1
2017-Jan-13 12:31S 22°53' W 043°11'0 0.0
2017-Jan-13 11:25S 22°53' W 043°11'0 0.1
2017-Jan-13 10:33S 22°53' W 043°11'0 0.3
2017-Jan-13 09:31S 22°53' W 043°11'0 0.0
2017-Jan-13 08:31S 22°53' W 043°11'7 7.2
2017-Jan-13 07:33S 22°59' W 043°07'8 8.2
2017-Jan-13 06:33S 23°07' W 043°04'7 7.2
2017-Jan-13 05:33S 22°60' W 043°07'7 7.0
2017-Jan-13 04:33S 22°53' W 043°10'1 0.8
2017-Jan-13 03:33S 22°53' W 043°11'0 0.0
2017-Jan-13 02:33S 22°53' W 043°11'0 0.5
2017-Jan-13 01:33S 22°53' W 043°11'0 0.0
2017-Jan-13 00:33S 22°53' W 043°11'0 0.1
2017-Jan-12 23:33S 22°53' W 043°11'0 0.1
2017-Jan-12 22:33S 22°53' W 043°11'0 0.3
2017-Jan-12 21:33S 22°53' W 043°11'8 7.9
2017-Jan-12 20:33S 23°00' W 043°07'7 6.7
2017-Jan-12 19:32S 23°06' W 043°04'8 8.1
2017-Jan-12 18:33S 22°59' W 043°07'7 6.5
2017-Jan-12 17:33S 22°53' W 043°11'0 0.0
2017-Jan-12 16:33S 22°53' W 043°11'0 0.0
2017-Jan-12 15:33S 22°53' W 043°11'0 0.0
2017-Jan-12 14:33S 22°53' W 043°11'0 0.4
2017-Jan-12 13:33S 22°53' W 043°11'0 0.1
2017-Jan-12 12:23S 22°53' W 043°11'1 0.3
2017-Jan-12 10:33S 22°53' W 043°10'8 7.6
2017-Jan-12 09:33S 23°00' W 043°07'7 6.8
2017-Jan-12 08:32S 23°07' W 043°04'8 8.3
2017-Jan-12 07:33S 22°59' W 043°07'6 4.4
2017-Jan-12 06:07S 22°53' W 043°11'0 0.0
2017-Jan-12 04:31S 22°53' W 043°11'4 4.0
2017-Jan-12 03:33S 22°56' W 043°08'9 8.9
2017-Jan-12 02:33S 23°05' W 043°04'2 2.4
2017-Jan-12 01:33S 23°03' W 043°06'8 8.3
2017-Jan-12 00:32S 22°55' W 043°09'2 1.2
2017-Jan-11 22:33S 22°53' W 043°11'0 0.1
2017-Jan-11 21:33S 22°53' W 043°11'0 0.0
2017-Jan-11 20:33S 22°53' W 043°11'0 0.0
2017-Jan-11 19:33S 22°53' W 043°11'0 0.2
2017-Jan-11 18:33S 22°53' W 043°11'0 0.3
2017-Jan-11 17:33S 22°53' W 043°11'0 0.0
2017-Jan-11 16:33S 22°53' W 043°11'2 2.5
2017-Jan-11 15:33S 22°55' W 043°09'10 9.5
2017-Jan-11 14:33S 23°04' W 043°05'1 1.3
2017-Jan-11 13:30S 23°03' W 043°06'8 8.4
2017-Jan-11 12:33S 22°55' W 043°09'3 2.5
2017-Jan-11 11:33S 22°53' W 043°11'0 0.0
2017-Jan-11 10:33S 22°53' W 043°11'0 0.0
2017-Jan-11 09:33S 22°53' W 043°11'7 6.5
2017-Jan-11 08:33S 22°59' W 043°07'8 8.2
2017-Jan-11 07:33S 23°07' W 043°04'7 6.8
2017-Jan-11 06:33S 23°00' W 043°07'  
Track history (hours):
 
Tides and Currents Weather Stations Pressure Air Temp Water Temp Dewpoint Dewpoint Depression Visibility Wind Speed Wind Dir Waves Ship Positions

Pieter Caland

Last reported at 2017-Jan-21 05:33 UTC. Time now 2017-Jan-21 06:26 UTC.
Position S 23°01' W 043°06'.

Length 96 m; draft 5.1 m.

Type: Other ship. MMSI: 244992000.

Date/timePositionNaut miles runAvg speedWind from/ knotsBaromVisibWave heightAir tempDewpointWater temp
2017-Jan-21 05:33S 23°01' W 043°06'4 3.8
2017-Jan-21 04:33S 23°05' W 043°05'8 8.3
2017-Jan-21 03:33S 22°57' W 043°08'3 2.9
2017-Jan-21 02:33S 22°55' W 043°10'0 0.0
2017-Jan-21 01:33S 22°55' W 043°10'0 0.3
2017-Jan-21 00:34S 22°55' W 043°09'3 2.7
2017-Jan-20 23:33S 22°53' W 043°11'0 0.0
2017-Jan-20 22:33S 22°53' W 043°11'0 0.5
2017-Jan-20 21:30S 22°53' W 043°11'0 0.0
2017-Jan-20 20:24S 22°53' W 043°11'0 0.0
2017-Jan-20 19:30S 22°53' W 043°11'0 0.5
2017-Jan-20 18:33S 22°53' W 043°11'6 5.8
2017-Jan-20 17:33S 22°58' W 043°08'9 9.0
2017-Jan-20 16:33S 23°06' W 043°04'5 4.7
2017-Jan-20 15:33S 23°02' W 043°06'8 8.0
2017-Jan-20 14:33S 22°54' W 043°09'2 2.4
2017-Jan-20 13:33S 22°53' W 043°11'0 0.0
2017-Jan-20 12:33S 22°53' W 043°11'0 0.0
2017-Jan-20 11:33S 22°53' W 043°11'1 0.6
2017-Jan-20 10:32S 22°53' W 043°11'2 2.1
2017-Jan-20 09:33S 22°54' W 043°09'9 9.2
2017-Jan-20 08:33S 23°03' W 043°05'1 1.1
2017-Jan-20 07:34S 23°04' W 043°05'8 8.3
2017-Jan-20 06:34S 22°56' W 043°08'2 1.8
2017-Jan-20 05:31S 22°55' W 043°09'0 0.0
2017-Jan-20 04:31S 22°55' W 043°09'0 0.0
2017-Jan-20 03:31S 22°55' W 043°09'0 0.0
2017-Jan-20 02:33S 22°55' W 043°09'1 1.1
2017-Jan-20 01:32S 22°55' W 043°08'6 5.9
2017-Jan-20 00:33S 23°00' W 043°07'6 5.9
2017-Jan-19 23:32S 23°06' W 043°04'8 8.0
2017-Jan-19 22:33S 22°59' W 043°07'7 6.4
2017-Jan-19 21:28S 22°53' W 043°12'0 0.0
2017-Jan-19 20:31S 22°53' W 043°12'1 0.5
2017-Jan-19 19:18S 22°53' W 043°11'0 0.0
2017-Jan-19 18:30S 22°53' W 043°11'1 0.7
2017-Jan-19 17:33S 22°53' W 043°10'0 0.0
2017-Jan-19 16:33S 22°53' W 043°10'0 0.0
2017-Jan-19 15:33S 22°53' W 043°10'0 0.0
2017-Jan-19 14:33S 22°53' W 043°10'0 0.0
2017-Jan-19 13:33S 22°53' W 043°10'0 0.0
2017-Jan-19 12:32S 22°53' W 043°10'0 0.0
2017-Jan-19 09:33S 22°53' W 043°10'1 0.5
2017-Jan-19 08:29S 22°53' W 043°11'0 0.0
2017-Jan-19 07:33S 22°53' W 043°11'1 1.4
2017-Jan-19 06:33S 22°54' W 043°10'8 8.3
2017-Jan-19 05:33S 23°01' W 043°06'4 4.4
2017-Jan-19 04:33S 23°05' W 043°04'9 8.7
2017-Jan-19 03:33S 22°57' W 043°08'3 3.0
2017-Jan-19 02:33S 22°55' W 043°10'0 0.3
2017-Jan-19 01:33S 22°55' W 043°09'0 0.2
2017-Jan-19 00:33S 22°55' W 043°09'2 1.7
2017-Jan-18 23:33S 22°53' W 043°10'0 0.0
2017-Jan-18 22:33S 22°53' W 043°11'0 0.0
2017-Jan-18 21:33S 22°53' W 043°11'1 0.6
2017-Jan-18 20:30S 22°53' W 043°11'3 3.2
2017-Jan-18 19:33S 22°55' W 043°09'9 9.3
2017-Jan-18 18:33S 23°04' W 043°05'0 0.4
2017-Jan-18 17:33S 23°04' W 043°05'8 8.4
2017-Jan-18 16:33S 22°56' W 043°09'3 2.8
2017-Jan-18 15:33S 22°53' W 043°10'0 0.0
2017-Jan-18 14:33S 22°53' W 043°10'0 0.0
2017-Jan-18 13:33S 22°53' W 043°10'0 0.0
2017-Jan-18 12:33S 22°53' W 043°10'0 0.5
2017-Jan-18 11:33S 22°53' W 043°11'0 0.0
2017-Jan-18 10:33S 22°53' W 043°11'1 0.5
2017-Jan-18 09:33S 22°53' W 043°10'8 8.0
2017-Jan-18 08:33S 23°01' W 043°07'5 5.2
2017-Jan-18 07:33S 23°05' W 043°05'8 8.5
2017-Jan-18 06:33S 22°58' W 043°08'3 3.2
2017-Jan-18 05:30S 22°55' W 043°10'0 0.0
2017-Jan-18 04:33S 22°55' W 043°10'0 0.0
2017-Jan-18 03:33S 22°55' W 043°10'2 2.0
2017-Jan-18 02:33S 22°53' W 043°11'0 0.0
2017-Jan-18 01:29S 22°53' W 043°11'0 0.0
2017-Jan-18 00:29S 22°53' W 043°11'0 0.0
2017-Jan-17 23:23S 22°53' W 043°11'0 0.0
2017-Jan-17 22:29S 22°53' W 043°11'0 0.1
2017-Jan-17 21:29S 22°53' W 043°11'0 0.0
2017-Jan-17 20:29S 22°53' W 043°11'0 0.1
2017-Jan-17 19:29S 22°53' W 043°11'0 0.0
2017-Jan-17 18:29S 22°53' W 043°11'0 0.0
2017-Jan-17 17:29S 22°53' W 043°11'0 0.0
2017-Jan-17 16:29S 22°53' W 043°11'3 3.0
2017-Jan-17 15:33S 22°55' W 043°09'8 8.1
2017-Jan-17 14:33S 23°03' W 043°06'4 3.7
2017-Jan-17 13:33S 23°06' W 043°04'8 8.3
2017-Jan-17 12:33S 22°58' W 043°08'6 5.6
2017-Jan-17 11:33S 22°53' W 043°10'0 0.0
2017-Jan-17 10:21S 22°53' W 043°10'0 0.4
2017-Jan-17 09:32S 22°53' W 043°11'0 0.2
2017-Jan-17 08:19S 22°53' W 043°11'2 2.5
2017-Jan-17 07:30S 22°54' W 043°10'0 0.1
2017-Jan-17 06:32S 22°55' W 043°10'2 2.0
2017-Jan-17 05:32S 22°53' W 043°11'0 0.0
2017-Jan-17 04:31S 22°53' W 043°11'0 0.0
2017-Jan-17 03:33S 22°53' W 043°11'5 4.7
2017-Jan-17 02:32S 22°57' W 043°08'10 8.1
2017-Jan-17 01:17S 23°07' W 043°04'2 2.9
2017-Jan-17 00:33S 23°05' W 043°05'8 8.4
2017-Jan-16 23:33S 22°57' W 043°08'4 4.0
2017-Jan-16 22:33S 22°53' W 043°10'0 0.0
2017-Jan-16 21:33S 22°53' W 043°11'0 0.0
2017-Jan-16 20:33S 22°53' W 043°11'0 0.0
2017-Jan-16 19:33S 22°53' W 043°11'1 0.6
2017-Jan-16 18:31S 22°53' W 043°11'0 0.0
2017-Jan-16 17:31S 22°53' W 043°11'0 0.0
2017-Jan-16 16:33S 22°53' W 043°11'7 7.1
2017-Jan-16 15:33S 22°59' W 043°07'8 7.9
2017-Jan-16 14:31S 23°07' W 043°04'6 6.4
2017-Jan-16 13:33S 23°01' W 043°07'8 8.3
2017-Jan-16 12:33S 22°53' W 043°10'1 0.6
2017-Jan-16 11:33S 22°53' W 043°10'0 0.1
2017-Jan-16 10:33S 22°53' W 043°10'0 0.1
2017-Jan-16 09:33S 22°53' W 043°10'0 0.0
2017-Jan-16 08:33S 22°53' W 043°10'0 0.0
2017-Jan-16 07:33S 22°53' W 043°10'5 5.5
2017-Jan-16 06:33S 22°58' W 043°08'9 8.8
2017-Jan-16 05:33S 23°06' W 043°04'6 6.2
2017-Jan-16 04:33S 23°01' W 043°06'8 8.0
2017-Jan-16 03:33S 22°53' W 043°10'0 0.5
2017-Jan-16 02:33S 22°53' W 043°11'0 0.0
2017-Jan-16 01:33S 22°53' W 043°11'0 0.0
2017-Jan-16 00:33S 22°53' W 043°10'0 0.5
2017-Jan-15 23:33S 22°53' W 043°11'1 0.5
2017-Jan-15 22:33S 22°53' W 043°10'1 0.5
2017-Jan-15 21:33S 22°53' W 043°11'0 0.1
2017-Jan-15 20:31S 22°53' W 043°11'0 0.1
2017-Jan-15 19:31S 22°53' W 043°11'0 0.0
2017-Jan-15 18:31S 22°53' W 043°11'0 0.0
2017-Jan-15 17:31S 22°53' W 043°11'0 0.0
2017-Jan-15 16:31S 22°53' W 043°11'0 0.0
2017-Jan-15 15:31S 22°53' W 043°11'0 0.0
2017-Jan-15 14:31S 22°53' W 043°11'0 0.0
2017-Jan-15 13:31S 22°53' W 043°11'0 0.0
2017-Jan-15 12:25S 22°53' W 043°11'0 0.0
2017-Jan-15 11:31S 22°53' W 043°11'0 0.1
2017-Jan-15 10:31S 22°53' W 043°11'0 0.0
2017-Jan-15 09:31S 22°53' W 043°11'0 0.0
2017-Jan-15 08:25S 22°53' W 043°11'0 0.1
2017-Jan-15 07:31S 22°53' W 043°11'0 0.0
2017-Jan-15 06:25S 22°53' W 043°11'0 0.1
2017-Jan-15 05:31S 22°53' W 043°11'0 0.0
2017-Jan-15 04:31S 22°53' W 043°11'0 0.1
2017-Jan-15 03:31S 22°53' W 043°11'0 0.0
2017-Jan-15 02:31S 22°53' W 043°11'0 0.0
2017-Jan-15 01:31S 22°53' W 043°11'0 0.0
2017-Jan-15 00:31S 22°53' W 043°11'0 0.1
2017-Jan-14 23:31S 22°53' W 043°11'0 0.0
2017-Jan-14 22:31S 22°53' W 043°11'0 0.0
2017-Jan-14 21:31S 22°53' W 043°11'0 0.0
2017-Jan-14 20:31S 22°53' W 043°11'0 0.0
2017-Jan-14 19:31S 22°53' W 043°11'0 0.0
2017-Jan-14 18:31S 22°53' W 043°11'0 0.0
2017-Jan-14 17:31S 22°53' W 043°11'0 0.0
2017-Jan-14 16:19S 22°53' W 043°11'0 0.0
2017-Jan-14 15:31S 22°53' W 043°11'0 0.0
2017-Jan-14 14:31S 22°53' W 043°11'0 0.1
2017-Jan-14 13:31S 22°53' W 043°11'0 0.0
2017-Jan-14 12:31S 22°53' W 043°11'0 0.0
2017-Jan-14 11:31S 22°53' W 043°11'0 0.0
2017-Jan-14 06:25S 22°53' W 043°11'0 0.1
2017-Jan-14 05:25S 22°53' W 043°11'0 0.0
2017-Jan-14 04:31S 22°53' W 043°11'0 0.0
2017-Jan-13 23:13S 22°53' W 043°11'0 0.0
2017-Jan-13 22:25S 22°53' W 043°11'0 0.0
2017-Jan-13 21:31S 22°53' W 043°11'0 0.0
2017-Jan-13 20:31S 22°53' W 043°11'0 0.0
2017-Jan-13 19:31S 22°53' W 043°11'0 0.0
2017-Jan-13 18:31S 22°53' W 043°11'0 0.1
2017-Jan-13 17:31S 22°53' W 043°11'0 0.0
2017-Jan-13 16:19S 22°53' W 043°11'0 0.0
2017-Jan-13 15:31S 22°53' W 043°11'0 0.0
2017-Jan-13 14:25S 22°53' W 043°11'0 0.1
2017-Jan-13 13:31S 22°53' W 043°11'0 0.1
2017-Jan-13 12:31S 22°53' W 043°11'0 0.0
2017-Jan-13 11:25S 22°53' W 043°11'0 0.1
2017-Jan-13 10:33S 22°53' W 043°11'0 0.3
2017-Jan-13 09:31S 22°53' W 043°11'0 0.0
2017-Jan-13 08:31S 22°53' W 043°11'7 7.2
2017-Jan-13 07:33S 22°59' W 043°07'8 8.2
2017-Jan-13 06:33S 23°07' W 043°04'7 7.2
2017-Jan-13 05:33S 22°60' W 043°07'7 7.0
2017-Jan-13 04:33S 22°53' W 043°10'1 0.8
2017-Jan-13 03:33S 22°53' W 043°11'0 0.0
2017-Jan-13 02:33S 22°53' W 043°11'0 0.5
2017-Jan-13 01:33S 22°53' W 043°11'0 0.0
2017-Jan-13 00:33S 22°53' W 043°11'0 0.1
2017-Jan-12 23:33S 22°53' W 043°11'0 0.1
2017-Jan-12 22:33S 22°53' W 043°11'0 0.3
2017-Jan-12 21:33S 22°53' W 043°11'8 7.9
2017-Jan-12 20:33S 23°00' W 043°07'7 6.7
2017-Jan-12 19:32S 23°06' W 043°04'8 8.1
2017-Jan-12 18:33S 22°59' W 043°07'7 6.5
2017-Jan-12 17:33S 22°53' W 043°11'0 0.0
2017-Jan-12 16:33S 22°53' W 043°11'0 0.0
2017-Jan-12 15:33S 22°53' W 043°11'0 0.0
2017-Jan-12 14:33S 22°53' W 043°11'0 0.4
2017-Jan-12 13:33S 22°53' W 043°11'0 0.1
2017-Jan-12 12:23S 22°53' W 043°11'1 0.3
2017-Jan-12 10:33S 22°53' W 043°10'8 7.6
2017-Jan-12 09:33S 23°00' W 043°07'7 6.8
2017-Jan-12 08:32S 23°07' W 043°04'8 8.3
2017-Jan-12 07:33S 22°59' W 043°07'6 4.4
2017-Jan-12 06:07S 22°53' W 043°11'0 0.0
2017-Jan-12 04:31S 22°53' W 043°11'4 4.0
2017-Jan-12 03:33S 22°56' W 043°08'9 8.9
2017-Jan-12 02:33S 23°05' W 043°04'2 2.4
2017-Jan-12 01:33S 23°03' W 043°06'8 8.3
2017-Jan-12 00:32S 22°55' W 043°09'2 1.2
2017-Jan-11 22:33S 22°53' W 043°11'0 0.1
2017-Jan-11 21:33S 22°53' W 043°11'0 0.0
2017-Jan-11 20:33S 22°53' W 043°11'0 0.0
2017-Jan-11 19:33S 22°53' W 043°11'0 0.2
2017-Jan-11 18:33S 22°53' W 043°11'0 0.3
2017-Jan-11 17:33S 22°53' W 043°11'0 0.0
2017-Jan-11 16:33S 22°53' W 043°11'2 2.5
2017-Jan-11 15:33S 22°55' W 043°09'10 9.5
2017-Jan-11 14:33S 23°04' W 043°05'1 1.3
2017-Jan-11 13:30S 23°03' W 043°06'8 8.4
2017-Jan-11 12:33S 22°55' W 043°09'3 2.5
2017-Jan-11 11:33S 22°53' W 043°11'0 0.0
2017-Jan-11 10:33S 22°53' W 043°11'0 0.0
2017-Jan-11 09:33S 22°53' W 043°11'7 6.5
2017-Jan-11 08:33S 22°59' W 043°07'8 8.2
2017-Jan-11 07:33S 23°07' W 043°04'7 6.8
2017-Jan-11 06:33S 23°00' W 043°07'  

Dump ship's entire track history